createdAt,value
2023-07-07T00:00:30.202Z,87.10
2023-07-07T00:03:18.367Z,87.30
2023-07-07T00:05:47.278Z,87.70
2023-07-07T00:08:15.722Z,88.00
2023-07-07T00:10:44.089Z,88.40
2023-07-07T00:13:15.233Z,88.70
2023-07-07T00:15:45.892Z,89.10
2023-07-07T00:18:27.550Z,89.60
2023-07-07T00:21:00.539Z,90.10
2023-07-07T00:23:40.074Z,90.30
2023-07-07T00:26:10.028Z,90.50
2023-07-07T00:28:38.206Z,90.90
2023-07-07T00:31:06.095Z,91.30
2023-07-07T00:33:34.292Z,91.60
2023-07-07T00:36:02.138Z,91.90
2023-07-07T00:38:30.257Z,92.20
2023-07-07T00:41:03.316Z,92.60
2023-07-07T00:43:32.241Z,93.10
2023-07-07T00:46:01.245Z,93.40
2023-07-07T00:48:36.456Z,93.60
2023-07-07T00:51:15.448Z,94.00
2023-07-07T00:53:46.745Z,94.40
2023-07-07T00:56:29.626Z,94.90
2023-07-07T00:59:04.965Z,95.30
2023-07-07T01:01:39.952Z,95.50
2023-07-07T01:04:13.087Z,95.80
2023-07-07T01:06:44.897Z,96.00
2023-07-07T01:09:13.187Z,96.30
2023-07-07T01:11:41.024Z,96.70
2023-07-07T01:14:19.060Z,97.30
2023-07-07T01:17:04.107Z,97.90
2023-07-07T01:19:53.844Z,98.80
2023-07-07T01:22:52.849Z,99.50
2023-07-07T01:25:30.155Z,99.90
2023-07-07T01:28:02.023Z,99.90
2023-07-07T01:30:30.419Z,99.90
2023-07-07T01:33:00.390Z,99.90
2023-07-07T01:35:28.851Z,99.90
2023-07-07T01:38:00.107Z,99.90
2023-07-07T01:40:38.227Z,99.90
2023-07-07T01:43:12.168Z,99.90
2023-07-07T01:45:53.972Z,99.90
2023-07-07T01:48:29.141Z,99.90
2023-07-07T01:50:57.906Z,99.90
2023-07-07T01:53:29.455Z,99.90
2023-07-07T01:56:00.792Z,99.90
2023-07-07T01:58:31.205Z,99.90
2023-07-07T02:01:01.582Z,99.90
2023-07-07T02:03:30.131Z,99.90
2023-07-07T02:05:58.151Z,99.90
2023-07-07T02:08:26.008Z,99.90
2023-07-07T02:10:54.062Z,99.90
2023-07-07T02:13:24.446Z,99.90
2023-07-07T02:15:53.163Z,99.90
2023-07-07T02:18:21.646Z,99.90
2023-07-07T02:20:52.180Z,99.90
2023-07-07T02:23:22.189Z,99.90
2023-07-07T02:25:50.280Z,99.90
2023-07-07T02:28:18.131Z,99.90
2023-07-07T02:30:46.387Z,99.90
2023-07-07T02:33:14.227Z,99.90
2023-07-07T02:35:42.573Z,99.90
2023-07-07T02:38:10.378Z,99.90
2023-07-07T02:40:39.596Z,99.90
2023-07-07T02:43:07.406Z,99.90
2023-07-07T02:45:35.657Z,99.90
2023-07-07T02:48:03.959Z,99.90
2023-07-07T02:50:32.128Z,99.90
2023-07-07T02:52:59.960Z,99.90
2023-07-07T02:55:28.107Z,99.90
2023-07-07T02:57:55.909Z,99.90
2023-07-07T03:00:25.300Z,99.90
2023-07-07T03:02:53.224Z,99.90
2023-07-07T03:05:21.432Z,99.90
2023-07-07T03:07:49.243Z,99.90
2023-07-07T03:10:17.475Z,99.90
2023-07-07T03:12:45.288Z,99.90
2023-07-07T03:15:13.526Z,99.90
2023-07-07T03:17:46.497Z,99.90
2023-07-07T03:20:15.043Z,99.90
2023-07-07T03:22:43.304Z,99.90
2023-07-07T03:25:12.202Z,99.90
2023-07-07T03:27:47.312Z,99.90
2023-07-07T03:30:24.437Z,99.90
2023-07-07T03:33:06.606Z,99.90
2023-07-07T03:35:35.376Z,99.90
2023-07-07T03:38:03.942Z,99.90
2023-07-07T03:40:32.480Z,99.90
2023-07-07T03:43:03.290Z,99.90
2023-07-07T03:45:35.624Z,99.90
2023-07-07T03:48:05.108Z,99.90
2023-07-07T03:50:33.593Z,99.90
2023-07-07T03:53:02.901Z,99.90
2023-07-07T03:55:31.865Z,99.90
2023-07-07T03:57:59.620Z,99.90
2023-07-07T04:00:27.666Z,99.90
2023-07-07T04:02:55.851Z,99.90
2023-07-07T04:05:24.144Z,99.90
2023-07-07T04:07:51.974Z,99.90
2023-07-07T04:10:20.010Z,99.90
2023-07-07T04:12:48.153Z,99.90
2023-07-07T04:15:18.132Z,99.90
2023-07-07T04:17:46.348Z,99.90
2023-07-07T04:20:14.464Z,99.90
2023-07-07T04:22:44.059Z,99.90
2023-07-07T04:25:14.791Z,99.90
2023-07-07T04:27:43.772Z,99.90
2023-07-07T04:30:13.131Z,99.90
2023-07-07T04:32:41.332Z,99.90
2023-07-07T04:35:09.873Z,99.90
2023-07-07T04:37:37.753Z,99.90
2023-07-07T04:40:06.455Z,99.90
2023-07-07T04:42:34.225Z,99.90
2023-07-07T04:45:02.263Z,99.90
2023-07-07T04:47:30.137Z,99.90
2023-07-07T04:49:58.344Z,99.90
2023-07-07T04:52:26.080Z,99.90
2023-07-07T04:54:54.127Z,99.90
2023-07-07T04:57:21.882Z,99.90
2023-07-07T04:59:50.785Z,99.90
2023-07-07T05:02:24.060Z,99.90
2023-07-07T05:04:52.331Z,99.90
2023-07-07T05:07:21.035Z,99.90
2023-07-07T05:09:49.078Z,99.90
2023-07-07T05:12:17.576Z,99.90
2023-07-07T05:14:45.748Z,99.90
2023-07-07T05:17:13.691Z,99.90
2023-07-07T05:19:43.014Z,99.90
2023-07-07T05:22:10.776Z,99.90
2023-07-07T05:24:41.376Z,99.90
2023-07-07T05:27:09.244Z,99.90
2023-07-07T05:29:40.046Z,99.90
2023-07-07T05:32:08.305Z,99.90
2023-07-07T05:34:36.373Z,99.90
2023-07-07T05:37:05.866Z,99.90
2023-07-07T05:39:34.976Z,99.90
2023-07-07T05:42:02.779Z,99.90
2023-07-07T05:44:30.938Z,99.90
2023-07-07T05:46:58.800Z,99.90
2023-07-07T05:49:26.803Z,99.90
2023-07-07T05:51:54.582Z,99.90
2023-07-07T05:54:25.510Z,99.90
2023-07-07T05:56:55.537Z,99.90
2023-07-07T05:59:24.482Z,99.90
2023-07-07T06:01:52.264Z,99.90
2023-07-07T06:04:21.316Z,99.90
2023-07-07T06:06:49.315Z,99.90
2023-07-07T06:09:17.344Z,99.90
2023-07-07T06:11:48.850Z,99.90
2023-07-07T06:14:16.978Z,99.90
2023-07-07T06:16:44.872Z,99.90
2023-07-07T06:19:15.695Z,99.90
2023-07-07T06:21:43.601Z,99.90
2023-07-07T06:24:11.644Z,99.90
2023-07-07T06:26:39.443Z,99.90
2023-07-07T06:29:07.636Z,99.90
2023-07-07T06:31:35.443Z,99.90
2023-07-07T06:34:03.561Z,99.90
2023-07-07T06:36:31.407Z,99.90
2023-07-07T06:38:59.583Z,99.90
2023-07-07T06:43:49.851Z,99.90
2023-07-07T06:46:19.550Z,99.90
2023-07-07T06:48:47.275Z,99.90
2023-07-07T06:51:15.305Z,99.90
2023-07-07T06:53:43.165Z,99.90
2023-07-07T06:56:11.452Z,99.90
2023-07-07T06:58:39.524Z,99.90
2023-07-07T07:01:14.385Z,97.70
2023-07-07T07:03:44.341Z,94.00
2023-07-07T07:06:14.292Z,89.80
2023-07-07T07:08:43.978Z,86.60
2023-07-07T07:11:12.080Z,82.50
2023-07-07T07:13:39.866Z,81.80
2023-07-07T07:16:07.959Z,78.60
2023-07-07T07:18:35.884Z,77.70
2023-07-07T07:21:04.035Z,77.50
2023-07-07T07:23:33.383Z,76.50
2023-07-07T07:26:02.602Z,75.40
2023-07-07T07:28:30.664Z,73.20
2023-07-07T07:30:59.038Z,71.80
2023-07-07T07:33:27.083Z,69.90
2023-07-07T07:35:55.096Z,67.90
2023-07-07T07:38:23.024Z,67.00
2023-07-07T07:40:54.752Z,66.80
2023-07-07T07:43:22.860Z,67.30
2023-07-07T07:45:50.910Z,67.60
2023-07-07T07:48:19.045Z,67.00
2023-07-07T07:50:47.131Z,65.50
2023-07-07T07:53:14.882Z,64.50
2023-07-07T07:55:43.062Z,62.90
2023-07-07T07:58:11.103Z,60.60
2023-07-07T08:00:39.146Z,60.80
2023-07-07T08:03:07.172Z,61.20
2023-07-07T08:05:35.390Z,61.00
2023-07-07T08:08:07.014Z,61.00
2023-07-07T08:10:38.248Z,60.40
2023-07-07T08:13:06.094Z,60.40
2023-07-07T08:15:34.363Z,60.00
2023-07-07T08:18:02.268Z,59.10
2023-07-07T08:20:31.963Z,58.80
2023-07-07T08:22:59.802Z,58.90
2023-07-07T08:25:28.675Z,58.80
2023-07-07T08:30:27.564Z,58.70
2023-07-07T08:32:55.891Z,58.20
2023-07-07T08:35:24.024Z,57.20
2023-07-07T08:37:51.832Z,56.70
2023-07-07T08:40:24.489Z,56.30
2023-07-07T08:42:52.844Z,56.00
2023-07-07T08:48:09.603Z,53.90
2023-07-07T08:50:37.976Z,54.10
2023-07-07T08:53:05.757Z,54.00
2023-07-07T08:55:58.121Z,53.40
2023-07-07T08:58:42.957Z,52.60
2023-07-07T09:01:30.902Z,51.90
2023-07-07T09:04:06.685Z,51.60
2023-07-07T09:06:40.899Z,51.30
2023-07-07T09:09:27.786Z,50.80
2023-07-07T09:11:58.799Z,50.50
2023-07-07T09:14:26.778Z,50.50
2023-07-07T09:17:00.016Z,50.30
2023-07-07T09:19:36.594Z,50.20
2023-07-07T09:22:20.609Z,49.80
2023-07-07T09:25:02.074Z,49.50
2023-07-07T09:27:37.360Z,49.30
2023-07-07T09:30:25.473Z,48.90
2023-07-07T09:32:54.118Z,48.10
2023-07-07T09:35:26.077Z,48.20
2023-07-07T09:38:04.746Z,48.30
2023-07-07T09:40:56.649Z,48.10
2023-07-07T09:43:58.662Z,48.20
2023-07-07T09:46:33.396Z,48.60
2023-07-07T09:49:33.827Z,48.20
2023-07-07T09:52:22.016Z,47.90
2023-07-07T09:54:51.596Z,47.80
2023-07-07T09:57:41.623Z,48.30
2023-07-07T10:00:17.441Z,48.40
2023-07-07T10:02:47.133Z,48.70
2023-07-07T10:05:37.988Z,48.20
2023-07-07T10:08:09.929Z,48.10
2023-07-07T10:10:38.556Z,47.80
2023-07-07T10:13:11.823Z,47.80
2023-07-07T10:16:01.860Z,47.50
2023-07-07T10:18:49.074Z,47.70
2023-07-07T10:21:22.736Z,48.00
2023-07-07T10:23:51.874Z,48.10
2023-07-07T10:26:21.079Z,48.10
2023-07-07T10:28:49.037Z,48.00
2023-07-07T10:31:18.267Z,47.70
2023-07-07T10:33:51.188Z,47.30
2023-07-07T10:36:24.997Z,47.10
2023-07-07T10:38:57.925Z,47.00
2023-07-07T10:41:28.663Z,47.40
2023-07-07T10:43:59.176Z,47.40
2023-07-07T10:46:27.394Z,47.50
2023-07-07T10:49:00.835Z,47.60
2023-07-07T10:51:47.895Z,47.90
2023-07-07T10:54:38.340Z,47.90
2023-07-07T10:57:47.727Z,47.40
2023-07-07T11:00:41.843Z,47.00
2023-07-07T11:06:04.107Z,46.20
2023-07-07T11:08:58.591Z,46.40
2023-07-07T11:11:38.395Z,46.50
2023-07-07T11:14:15.274Z,46.10
2023-07-07T11:16:46.764Z,46.10
2023-07-07T11:19:55.649Z,46.20
2023-07-07T11:22:42.442Z,46.40
2023-07-07T11:25:47.424Z,46.50
2023-07-07T11:28:48.289Z,46.70
2023-07-07T11:31:22.667Z,46.20
2023-07-07T11:34:13.361Z,45.80
2023-07-07T11:36:59.307Z,45.20
2023-07-07T11:39:32.746Z,45.10
2023-07-07T11:42:26.806Z,45.20
2023-07-07T11:45:09.323Z,45.30
2023-07-07T11:48:06.791Z,44.60
2023-07-07T11:50:50.961Z,44.40
2023-07-07T11:53:43.826Z,44.40
2023-07-07T11:56:14.941Z,45.10
2023-07-07T11:59:20.226Z,44.60
2023-07-07T12:01:52.248Z,44.60
2023-07-07T12:04:36.940Z,44.80
2023-07-07T12:07:12.510Z,44.10
2023-07-07T12:09:50.083Z,44.00
2023-07-07T12:12:40.384Z,43.90
2023-07-07T12:15:20.615Z,43.20
2023-07-07T12:17:55.954Z,43.10
2023-07-07T12:20:28.826Z,43.10
2023-07-07T12:23:00.045Z,42.70
2023-07-07T12:25:30.186Z,41.70
2023-07-07T12:27:59.619Z,41.40
2023-07-07T12:30:36.616Z,40.90
2023-07-07T12:33:05.641Z,40.30
2023-07-07T12:35:43.951Z,40.70
2023-07-07T12:38:11.722Z,40.70
2023-07-07T12:40:44.282Z,40.80
2023-07-07T12:43:54.194Z,41.20
2023-07-07T12:46:35.196Z,40.60
2023-07-07T12:49:17.633Z,40.10
2023-07-07T12:51:46.466Z,39.90
2023-07-07T12:54:34.601Z,40.00
2023-07-07T12:57:12.342Z,40.10
2023-07-07T12:59:41.342Z,40.30
2023-07-07T13:02:21.037Z,40.00
2023-07-07T13:04:54.428Z,39.90
2023-07-07T13:07:30.243Z,39.00
2023-07-07T13:09:58.377Z,38.50
2023-07-07T13:12:38.642Z,38.10
2023-07-07T13:15:17.269Z,38.20
2023-07-07T13:17:46.283Z,38.20
2023-07-07T13:20:20.227Z,38.30
2023-07-07T13:22:56.891Z,38.30
2023-07-07T13:25:31.391Z,38.00
2023-07-07T13:27:59.544Z,37.40
2023-07-07T13:30:40.318Z,37.30
2023-07-07T13:33:18.524Z,37.70
2023-07-07T13:35:50.854Z,37.80
2023-07-07T13:38:21.291Z,37.90
2023-07-07T13:40:49.842Z,38.70
2023-07-07T13:43:46.799Z,38.20
2023-07-07T13:46:27.383Z,38.20
2023-07-07T13:48:55.431Z,38.70
2023-07-07T13:51:28.389Z,38.70
2023-07-07T13:53:59.253Z,38.70
2023-07-07T13:56:28.722Z,38.70
2023-07-07T13:58:57.516Z,38.70
2023-07-07T14:01:38.560Z,38.70
2023-07-07T14:04:22.253Z,39.20
2023-07-07T14:06:51.041Z,38.80
2023-07-07T14:09:30.897Z,38.60
2023-07-07T14:11:59.343Z,38.60
2023-07-07T14:14:28.852Z,38.60
2023-07-07T14:17:20.001Z,38.50
2023-07-07T14:20:03.192Z,38.10
2023-07-07T14:22:33.443Z,38.00
2023-07-07T14:25:07.082Z,37.90
2023-07-07T14:27:35.076Z,37.90
2023-07-07T14:30:05.887Z,38.10
2023-07-07T14:32:41.519Z,38.20
2023-07-07T14:35:31.726Z,38.20
2023-07-07T14:38:03.447Z,38.00
2023-07-07T14:40:33.494Z,37.80
2023-07-07T14:43:04.376Z,37.20
2023-07-07T14:45:35.606Z,36.90
2023-07-07T14:48:03.710Z,37.10
2023-07-07T14:50:32.358Z,36.80
2023-07-07T14:53:01.263Z,37.10
2023-07-07T14:55:31.141Z,37.10
2023-07-07T14:58:01.976Z,37.10
2023-07-07T15:00:37.323Z,37.00
2023-07-07T15:03:39.419Z,37.00
2023-07-07T15:06:08.303Z,37.10
2023-07-07T15:08:38.522Z,36.90
2023-07-07T15:11:12.038Z,36.70
2023-07-07T15:13:40.979Z,37.00
2023-07-07T15:16:13.520Z,37.10
2023-07-07T15:18:41.335Z,37.30
2023-07-07T15:21:21.716Z,37.50
2023-07-07T15:23:49.792Z,37.60
2023-07-07T15:26:28.450Z,37.90
2023-07-07T15:28:57.481Z,37.80
2023-07-07T15:31:26.423Z,37.80
2023-07-07T15:33:55.435Z,37.90
2023-07-07T15:36:24.523Z,37.50
2023-07-07T15:38:56.729Z,37.80
2023-07-07T15:41:28.560Z,38.00
2023-07-07T15:43:56.776Z,37.40
2023-07-07T15:46:40.767Z,37.20
2023-07-07T15:49:15.201Z,37.30
2023-07-07T15:51:45.199Z,37.80
2023-07-07T15:54:16.191Z,37.80
2023-07-07T15:56:46.054Z,37.80
2023-07-07T15:59:21.121Z,37.90
2023-07-07T16:01:55.327Z,38.10
2023-07-07T16:04:23.883Z,38.20
2023-07-07T16:06:55.713Z,38.10
2023-07-07T16:09:27.096Z,38.10
2023-07-07T16:11:55.154Z,38.10
2023-07-07T16:14:22.949Z,38.10
2023-07-07T16:16:50.992Z,38.30
2023-07-07T16:19:19.976Z,38.30
2023-07-07T16:21:48.633Z,38.30
2023-07-07T16:24:16.324Z,38.30
2023-07-07T16:26:49.004Z,38.40
2023-07-07T16:29:18.419Z,38.30
2023-07-07T16:31:47.285Z,38.30
2023-07-07T16:34:15.419Z,38.30
2023-07-07T16:36:43.609Z,38.40
2023-07-07T16:39:19.270Z,38.60
2023-07-07T16:41:47.794Z,38.70
2023-07-07T16:44:16.432Z,38.70
2023-07-07T16:46:44.789Z,39.00
2023-07-07T16:49:14.621Z,39.10
2023-07-07T16:51:43.377Z,39.10
2023-07-07T16:54:11.351Z,39.40
2023-07-07T16:56:43.783Z,39.50
2023-07-07T16:59:17.138Z,39.60
2023-07-07T17:01:47.618Z,39.70
2023-07-07T17:04:16.017Z,39.90
2023-07-07T17:06:46.428Z,40.10
2023-07-07T17:09:19.386Z,40.30
2023-07-07T17:11:47.801Z,40.40
2023-07-07T17:14:15.701Z,40.30
2023-07-07T17:16:44.773Z,40.20
2023-07-07T17:19:12.628Z,40.60
2023-07-07T17:21:40.773Z,40.90
2023-07-07T17:24:08.512Z,41.10
2023-07-07T17:26:38.513Z,42.00
2023-07-07T17:29:15.048Z,41.20
2023-07-07T17:31:44.217Z,41.30
2023-07-07T17:34:13.958Z,41.40
2023-07-07T17:36:42.409Z,41.70
2023-07-07T17:39:15.853Z,41.90
2023-07-07T17:41:44.629Z,42.00
2023-07-07T17:44:12.828Z,42.10
2023-07-07T17:46:42.588Z,42.30
2023-07-07T17:49:19.352Z,42.40
2023-07-07T17:51:48.061Z,42.50
2023-07-07T17:54:16.440Z,42.70
2023-07-07T17:56:44.669Z,42.90
2023-07-07T17:59:23.298Z,43.20
2023-07-07T18:01:56.119Z,43.30
2023-07-07T18:04:24.158Z,43.80
2023-07-07T18:06:53.645Z,43.60
2023-07-07T18:09:21.444Z,43.70
2023-07-07T18:11:52.133Z,43.80
2023-07-07T18:14:24.173Z,43.90
2023-07-07T18:17:00.495Z,43.80
2023-07-07T18:20:27.103Z,43.90
2023-07-07T18:22:29.189Z,44.20
2023-07-07T18:24:57.081Z,44.20
2023-07-07T18:27:25.181Z,44.10
2023-07-07T18:29:52.972Z,44.10
2023-07-07T18:32:21.123Z,44.20
2023-07-07T18:34:49.076Z,44.20
2023-07-07T18:37:17.534Z,44.20
2023-07-07T18:39:48.954Z,44.40
2023-07-07T18:42:17.889Z,44.50
2023-07-07T18:44:47.325Z,44.40
2023-07-07T18:47:17.766Z,44.50
2023-07-07T18:49:45.981Z,44.50
2023-07-07T18:52:15.351Z,44.60
2023-07-07T18:54:43.404Z,45.00
2023-07-07T18:57:11.709Z,44.90
2023-07-07T18:59:39.902Z,45.00
2023-07-07T19:02:15.246Z,45.10
2023-07-07T19:04:44.458Z,45.20
2023-07-07T19:07:13.668Z,45.60
2023-07-07T19:09:43.337Z,45.40
2023-07-07T19:12:14.871Z,45.40
2023-07-07T19:14:42.682Z,45.50
2023-07-07T19:17:13.119Z,45.60
2023-07-07T19:19:43.818Z,45.70
2023-07-07T19:22:13.538Z,45.80
2023-07-07T19:24:41.377Z,45.80
2023-07-07T19:27:11.951Z,46.00
2023-07-07T19:29:42.226Z,46.20
2023-07-07T19:32:16.784Z,46.30
2023-07-07T19:34:44.953Z,46.50
2023-07-07T19:37:48.374Z,46.30
2023-07-07T19:40:33.218Z,47.30
2023-07-07T19:43:01.019Z,47.90
2023-07-07T19:45:29.271Z,48.10
2023-07-07T19:47:57.056Z,48.30
2023-07-07T19:50:31.049Z,48.60
2023-07-07T19:52:58.900Z,49.00
2023-07-07T19:55:26.981Z,49.20
2023-07-07T19:57:54.766Z,49.40
2023-07-07T20:00:23.860Z,49.50
2023-07-07T20:02:52.035Z,49.50
2023-07-07T20:05:20.328Z,49.50
2023-07-07T20:07:50.795Z,49.60
2023-07-07T20:10:21.432Z,49.70
2023-07-07T20:12:49.642Z,50.00
2023-07-07T20:15:20.148Z,50.10
2023-07-07T20:17:49.165Z,50.20
2023-07-07T20:20:19.288Z,50.30
2023-07-07T20:22:47.685Z,50.30
2023-07-07T20:25:16.731Z,50.40
2023-07-07T20:27:46.070Z,50.60
2023-07-07T20:30:20.423Z,50.50
2023-07-07T20:32:50.048Z,50.50
2023-07-07T20:35:21.664Z,50.50
2023-07-07T20:37:51.187Z,50.40
2023-07-07T20:40:23.318Z,50.50
2023-07-07T20:42:52.114Z,50.60
2023-07-07T20:45:20.913Z,50.80
2023-07-07T20:47:48.814Z,51.10
2023-07-07T20:50:19.038Z,51.40
2023-07-07T20:52:47.373Z,51.70
2023-07-07T20:55:16.945Z,52.00
2023-07-07T20:57:45.236Z,52.20
2023-07-07T21:00:19.093Z,52.60
2023-07-07T21:02:46.991Z,52.80
2023-07-07T21:05:15.783Z,53.00
2023-07-07T21:07:44.825Z,53.20
2023-07-07T21:10:21.518Z,53.30
2023-07-07T21:12:55.186Z,53.60
2023-07-07T21:15:23.769Z,53.70
2023-07-07T21:17:51.649Z,54.00
2023-07-07T21:20:38.395Z,54.10
2023-07-07T21:23:10.092Z,54.40
2023-07-07T21:25:45.384Z,54.50
2023-07-07T21:28:16.347Z,54.70
2023-07-07T21:30:48.767Z,54.80
2023-07-07T21:33:17.960Z,55.00
2023-07-07T21:35:46.161Z,55.30
2023-07-07T21:38:16.577Z,55.50
2023-07-07T21:40:45.458Z,55.70
2023-07-07T21:43:13.357Z,56.00
2023-07-07T21:45:41.432Z,56.10
2023-07-07T21:48:18.274Z,56.30
2023-07-07T21:50:46.307Z,56.50
2023-07-07T21:53:14.094Z,56.70
2023-07-07T21:55:42.245Z,56.80
2023-07-07T21:58:10.741Z,56.90
2023-07-07T22:00:39.608Z,56.80
2023-07-07T22:03:16.456Z,56.90
2023-07-07T22:05:49.840Z,57.20
2023-07-07T22:08:18.655Z,57.20
2023-07-07T22:10:52.040Z,57.30
2023-07-07T22:13:20.155Z,57.50
2023-07-07T22:15:50.224Z,57.50
2023-07-07T22:18:20.058Z,57.80
2023-07-07T22:21:01.084Z,57.90
2023-07-07T22:23:30.236Z,58.20
2023-07-07T22:26:00.384Z,58.50
2023-07-07T22:28:33.218Z,58.60
2023-07-07T22:31:02.622Z,58.90
2023-07-07T22:33:30.966Z,59.00
2023-07-07T22:35:59.517Z,59.20
2023-07-07T22:38:28.945Z,59.30
2023-07-07T22:40:59.141Z,59.40
2023-07-07T22:43:27.314Z,59.50
2023-07-07T22:45:58.394Z,59.70
2023-07-07T22:48:26.724Z,60.00
2023-07-07T22:50:54.734Z,60.10
2023-07-07T22:53:22.558Z,60.40
2023-07-07T22:55:50.758Z,60.70
2023-07-07T22:58:20.583Z,61.00
2023-07-07T23:00:50.121Z,61.30
2023-07-07T23:03:18.262Z,61.70
2023-07-07T23:05:47.373Z,62.00
2023-07-07T23:08:22.135Z,62.40
2023-07-07T23:10:51.947Z,62.90
2023-07-07T23:13:20.329Z,63.30
2023-07-07T23:15:48.461Z,63.70
2023-07-07T23:18:17.397Z,65.10
2023-07-07T23:20:45.556Z,64.70
2023-07-07T23:23:21.992Z,65.40
2023-07-07T23:25:58.353Z,65.80
2023-07-07T23:28:28.861Z,66.70
2023-07-07T23:31:07.771Z,67.50
2023-07-07T23:33:38.321Z,68.10
2023-07-07T23:36:17.086Z,68.60
2023-07-07T23:38:45.751Z,69.40
2023-07-07T23:41:14.802Z,69.80
2023-07-07T23:43:42.586Z,70.80
2023-07-07T23:46:15.228Z,71.40
2023-07-07T23:48:44.337Z,72.10
2023-07-07T23:51:16.302Z,72.70
2023-07-07T23:53:46.613Z,73.20
2023-07-07T23:56:33.239Z,73.80
2023-07-07T23:59:01.196Z,74.50
